sensor_id;sensor_type;location;lat;lon;timestamp;P1;durP1;ratioP1;P2;durP2;ratioP2
64291;SDS011;50628;51.008;13.658;2024-01-10T00:01:03;66.00;;;33.20;;
64291;SDS011;50628;51.008;13.658;2024-01-10T00:06:05;67.73;;;32.53;;
64291;SDS011;50628;51.008;13.658;2024-01-10T00:11:07;80.73;;;36.23;;
64291;SDS011;50628;51.008;13.658;2024-01-10T00:16:12;78.20;;;37.50;;
64291;SDS011;50628;51.008;13.658;2024-01-10T00:21:14;69.57;;;37.77;;
64291;SDS011;50628;51.008;13.658;2024-01-10T00:26:16;76.37;;;37.10;;
64291;SDS011;50628;51.008;13.658;2024-01-10T00:31:20;68.00;;;36.73;;
64291;SDS011;50628;51.008;13.658;2024-01-10T00:36:21;66.83;;;32.57;;
64291;SDS011;50628;51.008;13.658;2024-01-10T00:41:23;65.93;;;31.73;;
64291;SDS011;50628;51.008;13.658;2024-01-10T00:46:26;64.07;;;30.77;;
64291;SDS011;50628;51.008;13.658;2024-01-10T00:51:28;63.17;;;30.33;;
64291;SDS011;50628;51.008;13.658;2024-01-10T00:56:30;66.50;;;31.70;;
64291;SDS011;50628;51.008;13.658;2024-01-10T01:01:33;88.77;;;41.10;;
64291;SDS011;50628;51.008;13.658;2024-01-10T01:06:35;68.23;;;32.10;;
64291;SDS011;50628;51.008;13.658;2024-01-10T01:11:37;70.60;;;31.27;;
64291;SDS011;50628;51.008;13.658;2024-01-10T01:16:40;70.77;;;32.60;;
64291;SDS011;50628;51.008;13.658;2024-01-10T01:21:42;70.23;;;32.83;;
64291;SDS011;50628;51.008;13.658;2024-01-10T01:26:44;66.57;;;33.73;;
64291;SDS011;50628;51.008;13.658;2024-01-10T01:31:48;61.17;;;30.70;;
64291;SDS011;50628;51.008;13.658;2024-01-10T01:36:49;66.07;;;32.77;;
64291;SDS011;50628;51.008;13.658;2024-01-10T01:41:51;69.93;;;32.60;;
64291;SDS011;50628;51.008;13.658;2024-01-10T01:46:55;67.33;;;32.57;;
64291;SDS011;50628;51.008;13.658;2024-01-10T01:51:57;68.87;;;32.70;;
64291;SDS011;50628;51.008;13.658;2024-01-10T01:56:59;67.67;;;34.77;;
64291;SDS011;50628;51.008;13.658;2024-01-10T02:02:02;70.47;;;32.77;;
64291;SDS011;50628;51.008;13.658;2024-01-10T02:07:05;62.33;;;29.90;;
64291;SDS011;50628;51.008;13.658;2024-01-10T02:12:07;62.80;;;30.97;;
64291;SDS011;50628;51.008;13.658;2024-01-10T02:17:10;64.87;;;31.73;;
64291;SDS011;50628;51.008;13.658;2024-01-10T02:22:12;64.20;;;29.07;;
64291;SDS011;50628;51.008;13.658;2024-01-10T02:27:15;70.17;;;32.17;;
64291;SDS011;50628;51.008;13.658;2024-01-10T02:32:17;66.17;;;32.60;;
64291;SDS011;50628;51.008;13.658;2024-01-10T02:37:19;64.03;;;30.37;;
64291;SDS011;50628;51.008;13.658;2024-01-10T02:42:22;59.33;;;29.17;;
64291;SDS011;50628;51.008;13.658;2024-01-10T02:47:24;60.97;;;28.23;;
64291;SDS011;50628;51.008;13.658;2024-01-10T02:52:26;63.57;;;30.53;;
64291;SDS011;50628;51.008;13.658;2024-01-10T02:57:29;60.17;;;29.13;;
64291;SDS011;50628;51.008;13.658;2024-01-10T03:02:31;69.70;;;31.23;;
64291;SDS011;50628;51.008;13.658;2024-01-10T03:07:33;62.80;;;27.83;;
64291;SDS011;50628;51.008;13.658;2024-01-10T03:12:36;66.57;;;30.13;;
64291;SDS011;50628;51.008;13.658;2024-01-10T03:17:38;62.73;;;30.30;;
64291;SDS011;50628;51.008;13.658;2024-01-10T03:22:40;56.70;;;27.43;;
64291;SDS011;50628;51.008;13.658;2024-01-10T03:27:43;81.77;;;29.57;;
64291;SDS011;50628;51.008;13.658;2024-01-10T03:32:45;61.87;;;28.40;;
64291;SDS011;50628;51.008;13.658;2024-01-10T03:37:47;61.70;;;29.43;;
64291;SDS011;50628;51.008;13.658;2024-01-10T03:42:50;59.87;;;28.93;;
64291;SDS011;50628;51.008;13.658;2024-01-10T03:47:52;62.37;;;30.00;;
64291;SDS011;50628;51.008;13.658;2024-01-10T03:52:54;60.53;;;28.73;;
64291;SDS011;50628;51.008;13.658;2024-01-10T03:57:57;65.10;;;29.27;;
64291;SDS011;50628;51.008;13.658;2024-01-10T04:02:59;66.40;;;30.93;;
64291;SDS011;50628;51.008;13.658;2024-01-10T04:08:01;64.43;;;30.53;;
64291;SDS011;50628;51.008;13.658;2024-01-10T04:13:05;67.50;;;30.77;;
64291;SDS011;50628;51.008;13.658;2024-01-10T04:18:07;67.83;;;29.90;;
64291;SDS011;50628;51.008;13.658;2024-01-10T04:23:09;56.27;;;27.57;;
64291;SDS011;50628;51.008;13.658;2024-01-10T04:28:12;61.27;;;28.77;;
64291;SDS011;50628;51.008;13.658;2024-01-10T04:33:14;67.73;;;30.47;;
64291;SDS011;50628;51.008;13.658;2024-01-10T04:38:16;68.80;;;30.23;;
64291;SDS011;50628;51.008;13.658;2024-01-10T04:43:20;55.07;;;28.47;;
64291;SDS011;50628;51.008;13.658;2024-01-10T04:48:21;55.73;;;27.07;;
64291;SDS011;50628;51.008;13.658;2024-01-10T04:53:23;66.83;;;29.00;;
64291;SDS011;50628;51.008;13.658;2024-01-10T04:58:27;62.37;;;27.73;;
64291;SDS011;50628;51.008;13.658;2024-01-10T05:03:29;52.93;;;26.43;;
64291;SDS011;50628;51.008;13.658;2024-01-10T05:08:31;62.80;;;28.90;;
64291;SDS011;50628;51.008;13.658;2024-01-10T05:13:34;53.57;;;27.13;;
64291;SDS011;50628;51.008;13.658;2024-01-10T05:18:37;53.57;;;25.33;;
64291;SDS011;50628;51.008;13.658;2024-01-10T05:23:39;58.70;;;27.97;;
64291;SDS011;50628;51.008;13.658;2024-01-10T05:28:42;62.70;;;27.13;;
64291;SDS011;50628;51.008;13.658;2024-01-10T05:33:44;65.23;;;28.03;;
64291;SDS011;50628;51.008;13.658;2024-01-10T05:38:46;60.13;;;27.93;;
64291;SDS011;50628;51.008;13.658;2024-01-10T05:43:49;63.53;;;28.80;;
64291;SDS011;50628;51.008;13.658;2024-01-10T05:48:51;65.37;;;29.97;;
64291;SDS011;50628;51.008;13.658;2024-01-10T05:53:53;50.07;;;25.27;;
64291;SDS011;50628;51.008;13.658;2024-01-10T05:58:56;55.83;;;26.53;;
64291;SDS011;50628;51.008;13.658;2024-01-10T06:03:58;60.03;;;27.70;;
64291;SDS011;50628;51.008;13.658;2024-01-10T06:09:01;58.67;;;26.70;;
64291;SDS011;50628;51.008;13.658;2024-01-10T06:14:04;62.23;;;26.60;;
64291;SDS011;50628;51.008;13.658;2024-01-10T06:19:06;61.43;;;27.30;;
64291;SDS011;50628;51.008;13.658;2024-01-10T06:24:09;62.73;;;28.93;;
64291;SDS011;50628;51.008;13.658;2024-01-10T06:29:12;71.20;;;29.80;;
64291;SDS011;50628;51.008;13.658;2024-01-10T06:34:14;58.67;;;27.33;;
64291;SDS011;50628;51.008;13.658;2024-01-10T06:39:16;73.60;;;31.53;;
64291;SDS011;50628;51.008;13.658;2024-01-10T06:44:21;62.30;;;29.13;;
64291;SDS011;50628;51.008;13.658;2024-01-10T06:49:23;64.03;;;28.50;;
64291;SDS011;50628;51.008;13.658;2024-01-10T06:54:25;70.60;;;28.60;;
64291;SDS011;50628;51.008;13.658;2024-01-10T06:59:28;62.73;;;28.10;;
64291;SDS011;50628;51.008;13.658;2024-01-10T07:04:30;54.07;;;26.00;;
64291;SDS011;50628;51.008;13.658;2024-01-10T07:09:32;57.10;;;25.03;;
64291;SDS011;50628;51.008;13.658;2024-01-10T07:14:35;57.43;;;28.03;;
64291;SDS011;50628;51.008;13.658;2024-01-10T07:19:37;56.33;;;25.53;;
64291;SDS011;50628;51.008;13.658;2024-01-10T07:24:40;67.33;;;29.00;;
64291;SDS011;50628;51.008;13.658;2024-01-10T07:29:44;54.57;;;27.53;;
64291;SDS011;50628;51.008;13.658;2024-01-10T07:34:46;64.57;;;30.10;;
64291;SDS011;50628;51.008;13.658;2024-01-10T07:39:48;55.30;;;28.67;;
64291;SDS011;50628;51.008;13.658;2024-01-10T07:44:52;60.33;;;26.47;;
64291;SDS011;50628;51.008;13.658;2024-01-10T07:49:54;56.87;;;26.93;;
64291;SDS011;50628;51.008;13.658;2024-01-10T07:54:56;66.03;;;29.63;;
64291;SDS011;50628;51.008;13.658;2024-01-10T07:59:59;63.10;;;30.57;;
64291;SDS011;50628;51.008;13.658;2024-01-10T08:05:09;61.33;;;29.33;;
64291;SDS011;50628;51.008;13.658;2024-01-10T08:10:10;58.87;;;28.50;;
64291;SDS011;50628;51.008;13.658;2024-01-10T08:15:14;64.70;;;29.13;;
64291;SDS011;50628;51.008;13.658;2024-01-10T08:20:16;56.77;;;26.27;;
64291;SDS011;50628;51.008;13.658;2024-01-10T08:25:21;55.57;;;24.73;;
64291;SDS011;50628;51.008;13.658;2024-01-10T08:30:24;57.33;;;22.80;;
64291;SDS011;50628;51.008;13.658;2024-01-10T08:35:26;52.63;;;24.57;;
64291;SDS011;50628;51.008;13.658;2024-01-10T08:40:28;46.53;;;22.60;;
64291;SDS011;50628;51.008;13.658;2024-01-10T08:45:31;47.53;;;22.20;;
64291;SDS011;50628;51.008;13.658;2024-01-10T08:50:33;44.70;;;22.67;;
64291;SDS011;50628;51.008;13.658;2024-01-10T08:55:35;43.37;;;21.33;;
64291;SDS011;50628;51.008;13.658;2024-01-10T09:00:38;42.40;;;21.40;;
64291;SDS011;50628;51.008;13.658;2024-01-10T09:05:40;45.53;;;22.00;;
64291;SDS011;50628;51.008;13.658;2024-01-10T09:10:43;43.67;;;22.33;;
64291;SDS011;50628;51.008;13.658;2024-01-10T09:15:46;50.63;;;23.10;;
64291;SDS011;50628;51.008;13.658;2024-01-10T09:20:48;54.37;;;23.03;;
64291;SDS011;50628;51.008;13.658;2024-01-10T09:25:49;59.33;;;23.20;;
64291;SDS011;50628;51.008;13.658;2024-01-10T09:30:53;54.57;;;27.20;;
64291;SDS011;50628;51.008;13.658;2024-01-10T09:35:55;45.87;;;22.40;;
64291;SDS011;50628;51.008;13.658;2024-01-10T09:40:59;50.63;;;22.80;;
64291;SDS011;50628;51.008;13.658;2024-01-10T09:46:04;56.73;;;26.60;;
64291;SDS011;50628;51.008;13.658;2024-01-10T09:51:10;49.03;;;21.87;;
64291;SDS011;50628;51.008;13.658;2024-01-10T09:56:14;42.40;;;22.10;;
64291;SDS011;50628;51.008;13.658;2024-01-10T10:01:17;45.40;;;21.13;;
64291;SDS011;50628;51.008;13.658;2024-01-10T10:06:21;44.70;;;21.60;;
64291;SDS011;50628;51.008;13.658;2024-01-10T10:11:23;36.97;;;19.50;;
64291;SDS011;50628;51.008;13.658;2024-01-10T10:16:26;38.20;;;18.50;;
64291;SDS011;50628;51.008;13.658;2024-01-10T10:21:28;42.73;;;18.03;;
64291;SDS011;50628;51.008;13.658;2024-01-10T10:26:32;36.40;;;19.43;;
64291;SDS011;50628;51.008;13.658;2024-01-10T10:31:36;37.07;;;18.83;;
64291;SDS011;50628;51.008;13.658;2024-01-10T10:36:38;41.87;;;20.03;;
64291;SDS011;50628;51.008;13.658;2024-01-10T10:41:40;34.53;;;17.60;;
64291;SDS011;50628;51.008;13.658;2024-01-10T10:46:44;34.33;;;16.87;;
64291;SDS011;50628;51.008;13.658;2024-01-10T10:51:48;27.40;;;13.73;;
64291;SDS011;50628;51.008;13.658;2024-01-10T10:56:51;26.33;;;10.40;;
64291;SDS011;50628;51.008;13.658;2024-01-10T11:01:58;19.37;;;9.40;;
64291;SDS011;50628;51.008;13.658;2024-01-10T11:07:00;22.53;;;10.67;;
64291;SDS011;50628;51.008;13.658;2024-01-10T11:12:09;23.93;;;11.60;;
64291;SDS011;50628;51.008;13.658;2024-01-10T11:17:33;22.03;;;12.50;;
64291;SDS011;50628;51.008;13.658;2024-01-10T11:22:53;26.63;;;13.10;;
64291;SDS011;50628;51.008;13.658;2024-01-10T11:28:09;20.53;;;11.90;;
64291;SDS011;50628;51.008;13.658;2024-01-10T11:33:19;22.77;;;10.70;;
64291;SDS011;50628;51.008;13.658;2024-01-10T11:38:22;25.10;;;11.77;;
64291;SDS011;50628;51.008;13.658;2024-01-10T11:43:24;17.83;;;10.10;;
64291;SDS011;50628;51.008;13.658;2024-01-10T11:48:28;21.10;;;9.97;;
64291;SDS011;50628;51.008;13.658;2024-01-10T11:53:40;18.87;;;10.30;;
64291;SDS011;50628;51.008;13.658;2024-01-10T11:58:52;24.33;;;10.83;;
64291;SDS011;50628;51.008;13.658;2024-01-10T12:04:03;24.80;;;9.90;;
64291;SDS011;50628;51.008;13.658;2024-01-10T12:09:05;15.57;;;9.23;;
64291;SDS011;50628;51.008;13.658;2024-01-10T12:14:09;19.53;;;10.30;;
64291;SDS011;50628;51.008;13.658;2024-01-10T12:19:13;19.17;;;8.83;;
64291;SDS011;50628;51.008;13.658;2024-01-10T12:24:15;20.00;;;8.57;;
64291;SDS011;50628;51.008;13.658;2024-01-10T12:29:18;16.03;;;8.80;;
64291;SDS011;50628;51.008;13.658;2024-01-10T12:34:22;18.63;;;9.50;;
64291;SDS011;50628;51.008;13.658;2024-01-10T12:39:24;16.30;;;9.00;;
64291;SDS011;50628;51.008;13.658;2024-01-10T12:44:31;17.50;;;8.47;;
64291;SDS011;50628;51.008;13.658;2024-01-10T12:49:35;19.00;;;9.03;;
64291;SDS011;50628;51.008;13.658;2024-01-10T12:54:38;20.70;;;10.03;;
64291;SDS011;50628;51.008;13.658;2024-01-10T12:59:40;24.27;;;11.40;;
64291;SDS011;50628;51.008;13.658;2024-01-10T13:04:43;27.90;;;13.00;;
64291;SDS011;50628;51.008;13.658;2024-01-10T13:09:45;27.73;;;14.13;;
64291;SDS011;50628;51.008;13.658;2024-01-10T13:14:46;21.60;;;13.40;;
64291;SDS011;50628;51.008;13.658;2024-01-10T13:19:50;26.20;;;14.20;;
64291;SDS011;50628;51.008;13.658;2024-01-10T13:24:54;20.33;;;13.50;;
64291;SDS011;50628;51.008;13.658;2024-01-10T13:29:56;25.87;;;13.77;;
64291;SDS011;50628;51.008;13.658;2024-01-10T13:34:59;29.40;;;14.23;;
64291;SDS011;50628;51.008;13.658;2024-01-10T13:40:02;27.27;;;13.93;;
64291;SDS011;50628;51.008;13.658;2024-01-10T13:45:05;24.03;;;13.80;;
64291;SDS011;50628;51.008;13.658;2024-01-10T13:50:12;28.57;;;12.47;;
64291;SDS011;50628;51.008;13.658;2024-01-10T13:55:14;22.73;;;12.60;;
64291;SDS011;50628;51.008;13.658;2024-01-10T14:00:16;25.53;;;13.50;;
64291;SDS011;50628;51.008;13.658;2024-01-10T14:05:22;21.70;;;12.17;;
64291;SDS011;50628;51.008;13.658;2024-01-10T14:10:24;23.37;;;12.90;;
64291;SDS011;50628;51.008;13.658;2024-01-10T14:15:26;26.10;;;11.67;;
64291;SDS011;50628;51.008;13.658;2024-01-10T14:20:29;28.20;;;10.27;;
64291;SDS011;50628;51.008;13.658;2024-01-10T14:25:31;11.87;;;7.87;;
64291;SDS011;50628;51.008;13.658;2024-01-10T14:30:33;13.70;;;6.87;;
64291;SDS011;50628;51.008;13.658;2024-01-10T14:35:36;19.27;;;7.10;;
64291;SDS011;50628;51.008;13.658;2024-01-10T14:40:38;12.23;;;7.30;;
64291;SDS011;50628;51.008;13.658;2024-01-10T14:45:40;12.63;;;5.87;;
64291;SDS011;50628;51.008;13.658;2024-01-10T14:50:43;22.43;;;7.80;;
64291;SDS011;50628;51.008;13.658;2024-01-10T14:55:45;11.47;;;6.83;;
64291;SDS011;50628;51.008;13.658;2024-01-10T15:00:47;18.33;;;6.67;;
64291;SDS011;50628;51.008;13.658;2024-01-10T15:05:50;24.20;;;8.53;;
64291;SDS011;50628;51.008;13.658;2024-01-10T15:10:53;16.33;;;7.27;;
64291;SDS011;50628;51.008;13.658;2024-01-10T15:15:55;30.63;;;9.60;;
64291;SDS011;50628;51.008;13.658;2024-01-10T15:20:59;18.93;;;9.63;;
64291;SDS011;50628;51.008;13.658;2024-01-10T15:26:01;23.73;;;14.77;;
64291;SDS011;50628;51.008;13.658;2024-01-10T15:31:02;20.30;;;12.13;;
64291;SDS011;50628;51.008;13.658;2024-01-10T15:36:06;23.73;;;11.97;;
64291;SDS011;50628;51.008;13.658;2024-01-10T15:41:09;23.70;;;14.20;;
64291;SDS011;50628;51.008;13.658;2024-01-10T15:46:17;28.83;;;18.77;;
64291;SDS011;50628;51.008;13.658;2024-01-10T15:51:21;29.40;;;16.93;;
64291;SDS011;50628;51.008;13.658;2024-01-10T15:56:23;25.53;;;12.80;;
64291;SDS011;50628;51.008;13.658;2024-01-10T16:01:25;24.20;;;10.07;;
64291;SDS011;50628;51.008;13.658;2024-01-10T16:06:28;21.90;;;11.93;;
64291;SDS011;50628;51.008;13.658;2024-01-10T16:11:30;20.23;;;10.20;;
64291;SDS011;50628;51.008;13.658;2024-01-10T16:16:31;23.63;;;11.10;;
64291;SDS011;50628;51.008;13.658;2024-01-10T16:21:37;31.17;;;13.40;;
64291;SDS011;50628;51.008;13.658;2024-01-10T16:26:38;26.43;;;14.57;;
64291;SDS011;50628;51.008;13.658;2024-01-10T16:31:40;29.40;;;19.47;;
64291;SDS011;50628;51.008;13.658;2024-01-10T16:36:43;23.13;;;12.27;;
64291;SDS011;50628;51.008;13.658;2024-01-10T16:41:46;30.03;;;12.77;;
64291;SDS011;50628;51.008;13.658;2024-01-10T16:46:47;28.33;;;15.37;;
64291;SDS011;50628;51.008;13.658;2024-01-10T16:51:51;27.30;;;13.10;;
64291;SDS011;50628;51.008;13.658;2024-01-10T16:56:53;26.43;;;15.43;;
64291;SDS011;50628;51.008;13.658;2024-01-10T17:01:55;33.67;;;15.63;;
64291;SDS011;50628;51.008;13.658;2024-01-10T17:06:58;32.73;;;22.33;;
64291;SDS011;50628;51.008;13.658;2024-01-10T17:12:00;36.37;;;22.37;;
64291;SDS011;50628;51.008;13.658;2024-01-10T17:17:02;28.03;;;18.00;;
64291;SDS011;50628;51.008;13.658;2024-01-10T17:22:05;41.47;;;18.17;;
64291;SDS011;50628;51.008;13.658;2024-01-10T17:27:07;34.47;;;17.27;;
64291;SDS011;50628;51.008;13.658;2024-01-10T17:32:09;33.03;;;16.67;;
64291;SDS011;50628;51.008;13.658;2024-01-10T17:37:12;36.87;;;22.80;;
64291;SDS011;50628;51.008;13.658;2024-01-10T17:42:15;39.83;;;26.67;;
64291;SDS011;50628;51.008;13.658;2024-01-10T17:47:17;33.67;;;23.47;;
64291;SDS011;50628;51.008;13.658;2024-01-10T17:52:21;35.03;;;18.43;;
64291;SDS011;50628;51.008;13.658;2024-01-10T17:57:22;32.47;;;20.43;;
64291;SDS011;50628;51.008;13.658;2024-01-10T18:02:27;30.57;;;19.17;;
64291;SDS011;50628;51.008;13.658;2024-01-10T18:07:30;37.80;;;23.80;;
64291;SDS011;50628;51.008;13.658;2024-01-10T18:12:32;40.53;;;20.60;;
64291;SDS011;50628;51.008;13.658;2024-01-10T18:17:36;53.70;;;32.67;;
64291;SDS011;50628;51.008;13.658;2024-01-10T18:22:39;46.50;;;26.07;;
64291;SDS011;50628;51.008;13.658;2024-01-10T18:27:41;36.00;;;21.43;;
64291;SDS011;50628;51.008;13.658;2024-01-10T18:32:43;38.90;;;20.60;;
64291;SDS011;50628;51.008;13.658;2024-01-10T18:37:46;37.13;;;21.77;;
64291;SDS011;50628;51.008;13.658;2024-01-10T18:42:49;30.73;;;16.70;;
64291;SDS011;50628;51.008;13.658;2024-01-10T18:47:51;34.67;;;18.57;;
64291;SDS011;50628;51.008;13.658;2024-01-10T18:52:54;44.63;;;22.97;;
64291;SDS011;50628;51.008;13.658;2024-01-10T18:57:58;42.83;;;23.33;;
64291;SDS011;50628;51.008;13.658;2024-01-10T19:03:00;44.60;;;25.83;;
64291;SDS011;50628;51.008;13.658;2024-01-10T19:08:04;38.00;;;22.50;;
64291;SDS011;50628;51.008;13.658;2024-01-10T19:13:06;36.77;;;17.77;;
64291;SDS011;50628;51.008;13.658;2024-01-10T19:18:08;40.87;;;20.17;;
64291;SDS011;50628;51.008;13.658;2024-01-10T19:23:11;37.37;;;21.27;;
64291;SDS011;50628;51.008;13.658;2024-01-10T19:28:13;36.77;;;19.73;;
64291;SDS011;50628;51.008;13.658;2024-01-10T19:33:15;43.57;;;25.60;;
64291;SDS011;50628;51.008;13.658;2024-01-10T19:38:18;54.27;;;34.03;;
64291;SDS011;50628;51.008;13.658;2024-01-10T19:43:23;47.97;;;29.33;;
64291;SDS011;50628;51.008;13.658;2024-01-10T19:48:27;44.37;;;28.40;;
64291;SDS011;50628;51.008;13.658;2024-01-10T19:53:30;49.73;;;25.17;;
64291;SDS011;50628;51.008;13.658;2024-01-10T19:58:32;42.93;;;27.93;;
64291;SDS011;50628;51.008;13.658;2024-01-10T20:03:34;48.17;;;27.83;;
64291;SDS011;50628;51.008;13.658;2024-01-10T20:08:37;44.80;;;26.07;;
64291;SDS011;50628;51.008;13.658;2024-01-10T20:13:39;37.70;;;19.77;;
64291;SDS011;50628;51.008;13.658;2024-01-10T20:18:41;46.10;;;25.40;;
64291;SDS011;50628;51.008;13.658;2024-01-10T20:23:44;44.90;;;27.17;;
64291;SDS011;50628;51.008;13.658;2024-01-10T20:28:46;34.73;;;23.50;;
64291;SDS011;50628;51.008;13.658;2024-01-10T20:33:48;37.97;;;21.23;;
64291;SDS011;50628;51.008;13.658;2024-01-10T20:38:51;38.50;;;19.63;;
64291;SDS011;50628;51.008;13.658;2024-01-10T20:43:53;39.83;;;21.30;;
64291;SDS011;50628;51.008;13.658;2024-01-10T20:48:55;37.03;;;23.90;;
64291;SDS011;50628;51.008;13.658;2024-01-10T20:54:00;41.13;;;22.90;;
64291;SDS011;50628;51.008;13.658;2024-01-10T20:59:01;32.20;;;18.33;;
64291;SDS011;50628;51.008;13.658;2024-01-10T21:04:03;35.63;;;17.20;;
64291;SDS011;50628;51.008;13.658;2024-01-10T21:09:07;34.33;;;19.37;;
64291;SDS011;50628;51.008;13.658;2024-01-10T21:14:08;33.13;;;18.80;;
64291;SDS011;50628;51.008;13.658;2024-01-10T21:19:12;32.20;;;17.93;;
64291;SDS011;50628;51.008;13.658;2024-01-10T21:24:15;45.17;;;28.87;;
64291;SDS011;50628;51.008;13.658;2024-01-10T21:29:18;51.50;;;31.33;;
64291;SDS011;50628;51.008;13.658;2024-01-10T21:34:20;54.80;;;30.90;;
64291;SDS011;50628;51.008;13.658;2024-01-10T21:39:23;32.90;;;18.03;;
64291;SDS011;50628;51.008;13.658;2024-01-10T21:44:26;35.53;;;19.77;;
64291;SDS011;50628;51.008;13.658;2024-01-10T21:49:28;31.50;;;17.87;;
64291;SDS011;50628;51.008;13.658;2024-01-10T21:54:31;39.17;;;21.77;;
64291;SDS011;50628;51.008;13.658;2024-01-10T21:59:34;50.97;;;29.90;;
64291;SDS011;50628;51.008;13.658;2024-01-10T22:04:36;37.20;;;20.63;;
64291;SDS011;50628;51.008;13.658;2024-01-10T22:09:39;30.67;;;18.20;;
64291;SDS011;50628;51.008;13.658;2024-01-10T22:14:41;33.07;;;17.80;;
64291;SDS011;50628;51.008;13.658;2024-01-10T22:19:43;42.37;;;25.83;;
64291;SDS011;50628;51.008;13.658;2024-01-10T22:24:46;42.33;;;24.43;;
64291;SDS011;50628;51.008;13.658;2024-01-10T22:29:48;30.57;;;17.43;;
64291;SDS011;50628;51.008;13.658;2024-01-10T22:34:50;28.50;;;16.83;;
64291;SDS011;50628;51.008;13.658;2024-01-10T22:39:53;36.60;;;21.73;;
64291;SDS011;50628;51.008;13.658;2024-01-10T22:44:55;47.33;;;29.67;;
64291;SDS011;50628;51.008;13.658;2024-01-10T22:49:57;32.00;;;16.73;;
64291;SDS011;50628;51.008;13.658;2024-01-10T22:55:00;47.50;;;23.10;;
64291;SDS011;50628;51.008;13.658;2024-01-10T23:00:03;34.27;;;17.20;;
64291;SDS011;50628;51.008;13.658;2024-01-10T23:05:08;31.23;;;16.57;;
64291;SDS011;50628;51.008;13.658;2024-01-10T23:10:12;30.37;;;15.53;;
64291;SDS011;50628;51.008;13.658;2024-01-10T23:15:14;30.33;;;15.40;;
64291;SDS011;50628;51.008;13.658;2024-01-10T23:20:15;43.00;;;24.97;;
64291;SDS011;50628;51.008;13.658;2024-01-10T23:25:19;41.37;;;25.87;;
64291;SDS011;50628;51.008;13.658;2024-01-10T23:30:21;35.10;;;20.83;;
64291;SDS011;50628;51.008;13.658;2024-01-10T23:35:23;31.30;;;15.73;;
64291;SDS011;50628;51.008;13.658;2024-01-10T23:40:29;31.37;;;16.20;;
64291;SDS011;50628;51.008;13.658;2024-01-10T23:45:31;30.83;;;14.43;;
64291;SDS011;50628;51.008;13.658;2024-01-10T23:50:33;27.63;;;15.23;;
64291;SDS011;50628;51.008;13.658;2024-01-10T23:55:36;35.27;;;19.43;;
